createdAt,value
2017-12-22T00:02:58.245Z,1023.97
2017-12-22T00:04:55.038Z,1023.95
2017-12-22T00:10:10.464Z,1023.99
2017-12-22T00:14:46.625Z,1023.95
2017-12-22T00:15:36.694Z,1023.96
2017-12-22T00:16:27.089Z,1023.94
2017-12-22T00:17:15.689Z,1023.96
2017-12-22T00:18:04.251Z,1023.94
2017-12-22T00:21:48.299Z,1023.89
2017-12-22T00:22:36.944Z,1023.91
2017-12-22T00:23:26.876Z,1023.89
2017-12-22T00:24:14.563Z,1023.87
2017-12-22T00:25:04.616Z,1023.88
2017-12-22T00:28:50.223Z,1023.79
2017-12-22T00:29:38.920Z,1023.8
2017-12-22T00:30:28.217Z,1023.81
2017-12-22T00:31:16.309Z,1023.78
2017-12-22T00:32:06.751Z,1023.79
2017-12-22T00:37:37.781Z,1023.75
2017-12-22T00:40:13.114Z,1023.71
2017-12-22T00:42:10.104Z,1023.69
2017-12-22T00:45:55.860Z,1023.63
2017-12-22T00:46:35.755Z,1023.6
2017-12-22T00:47:16.189Z,1023.6
2017-12-22T00:47:56.578Z,1023.61
2017-12-22T00:48:38.445Z,1023.61
2017-12-22T00:49:28.587Z,1023.61
2017-12-22T00:50:16.309Z,1023.68
2017-12-22T00:51:12.263Z,1023.68
2017-12-22T00:51:59.063Z,1023.66
2017-12-22T00:52:39.589Z,1023.69
2017-12-22T00:53:22.653Z,1023.68
2017-12-22T01:01:57.113Z,1023.61
2017-12-22T01:04:05.719Z,1023.57
2017-12-22T01:07:44.020Z,1023.5
2017-12-22T01:17:43.378Z,1023.46
2017-12-22T01:23:39.219Z,1023.46
2017-12-22T01:27:56.917Z,1023.53
2017-12-22T01:29:57.188Z,1023.59
2017-12-22T01:32:42.626Z,1023.41
2017-12-22T01:33:36.613Z,1023.55
2017-12-22T01:35:43.120Z,1023.53
2017-12-22T01:36:31.402Z,1023.54
2017-12-22T01:37:20.264Z,1023.52
2017-12-22T01:38:08.420Z,1023.54
2017-12-22T01:38:58.778Z,1023.51
2017-12-22T01:42:03.064Z,1023.46
2017-12-22T01:46:23.783Z,1023.43
2017-12-22T01:49:44.272Z,1023.37
2017-12-22T01:52:29.594Z,1023.41
2017-12-22T01:55:04.168Z,1023.4
2017-12-22T01:57:10.921Z,1023.36
2017-12-22T01:59:06.491Z,1023.36
2017-12-22T02:01:39.498Z,1023.4
2017-12-22T02:05:39.841Z,1023.33
2017-12-22T02:09:15.587Z,1023.35
2017-12-22T02:12:16.606Z,1023.31
2017-12-22T02:16:59.152Z,1023.27
2017-12-22T02:18:37.368Z,1023.22
2017-12-22T02:26:27.650Z,1023.18
2017-12-22T02:27:18.064Z,1023.16
2017-12-22T02:30:18.107Z,1023.04
2017-12-22T02:32:17.595Z,1023.1
2017-12-22T02:39:05.854Z,1023.01
2017-12-22T02:44:12.732Z,1022.97
2017-12-22T02:44:53.066Z,1022.95
2017-12-22T02:45:33.446Z,1022.99
2017-12-22T02:46:13.823Z,1022.99
2017-12-22T02:46:54.255Z,1022.97
2017-12-22T02:47:34.675Z,1023.01
2017-12-22T02:48:15.126Z,1022.98
2017-12-22T02:48:55.481Z,1022.96
2017-12-22T02:49:35.873Z,1022.97
2017-12-22T02:50:16.294Z,1022.97
2017-12-22T02:50:56.777Z,1022.96
2017-12-22T02:51:37.155Z,1022.94
2017-12-22T02:52:17.493Z,1022.96
2017-12-22T02:52:58.013Z,1022.96
2017-12-22T02:53:38.317Z,1022.96
2017-12-22T02:54:18.682Z,1022.94
2017-12-22T02:54:59.102Z,1022.97
2017-12-22T02:55:39.479Z,1022.95
2017-12-22T02:56:19.935Z,1022.91
2017-12-22T02:57:00.434Z,1022.95
2017-12-22T02:57:40.706Z,1022.9
2017-12-22T02:58:21.152Z,1022.92
2017-12-22T02:59:01.563Z,1022.91
2017-12-22T02:59:41.993Z,1022.89
2017-12-22T03:00:22.604Z,1022.89
2017-12-22T03:01:03.068Z,1022.87
2017-12-22T03:01:43.514Z,1022.87
2017-12-22T03:02:23.878Z,1022.85
2017-12-22T03:03:04.242Z,1022.87
2017-12-22T03:03:44.593Z,1022.8
2017-12-22T03:04:24.997Z,1022.86
2017-12-22T03:05:05.435Z,1022.83
2017-12-22T03:05:45.804Z,1022.85
2017-12-22T03:06:26.225Z,1022.83
2017-12-22T03:07:06.604Z,1022.82
2017-12-22T03:07:47.099Z,1022.83
2017-12-22T03:08:27.417Z,1022.84
2017-12-22T03:09:07.849Z,1022.82
2017-12-22T03:09:48.226Z,1022.79
2017-12-22T03:10:28.589Z,1022.79
2017-12-22T03:11:09.058Z,1022.76
2017-12-22T03:11:49.497Z,1022.76
2017-12-22T03:12:30.060Z,1022.77
2017-12-22T03:13:10.711Z,1022.74
2017-12-22T03:13:51.052Z,1022.77
2017-12-22T03:14:31.595Z,1022.74
2017-12-22T03:15:12.417Z,1022.78
2017-12-22T03:15:52.640Z,1022.76
2017-12-22T03:16:33.157Z,1022.77
2017-12-22T03:17:13.562Z,1022.74
2017-12-22T03:17:53.909Z,1022.73
2017-12-22T03:18:34.288Z,1022.74
2017-12-22T03:19:14.735Z,1022.75
2017-12-22T03:19:55.179Z,1022.71
2017-12-22T03:20:35.569Z,1022.7
2017-12-22T03:21:16.267Z,1022.68
2017-12-22T03:21:56.656Z,1022.69
2017-12-22T03:22:37.049Z,1022.67
2017-12-22T03:23:17.403Z,1022.67
2017-12-22T03:23:57.836Z,1022.65
2017-12-22T03:24:38.196Z,1022.62
2017-12-22T03:25:18.648Z,1022.61
2017-12-22T03:25:59.028Z,1022.61
2017-12-22T03:26:39.382Z,1022.62
2017-12-22T03:27:22.413Z,1022.63
2017-12-22T03:28:02.809Z,1022.62
2017-12-22T03:28:43.145Z,1022.63
2017-12-22T03:29:23.582Z,1022.63
2017-12-22T03:30:04.090Z,1022.6
2017-12-22T03:30:47.438Z,1022.65
2017-12-22T03:31:27.989Z,1022.6
2017-12-22T03:32:08.293Z,1022.58
2017-12-22T03:32:48.757Z,1022.61
2017-12-22T03:33:29.216Z,1022.6
2017-12-22T03:34:09.578Z,1022.58
2017-12-22T03:34:50.036Z,1022.58
2017-12-22T03:35:30.447Z,1022.6
2017-12-22T03:36:10.900Z,1022.59
2017-12-22T03:36:51.156Z,1022.63
2017-12-22T03:37:31.609Z,1022.61
2017-12-22T03:38:11.940Z,1022.56
2017-12-22T03:38:52.598Z,1022.54
2017-12-22T03:39:32.988Z,1022.55
2017-12-22T03:40:13.499Z,1022.57
2017-12-22T03:40:53.985Z,1022.56
2017-12-22T03:41:34.366Z,1022.61
2017-12-22T03:42:14.706Z,1022.52
2017-12-22T03:42:55.171Z,1022.53
2017-12-22T03:43:35.558Z,1022.53
2017-12-22T03:44:15.921Z,1022.53
2017-12-22T03:44:56.344Z,1022.52
2017-12-22T03:45:36.732Z,1022.5
2017-12-22T03:46:17.203Z,1022.52
2017-12-22T03:46:57.829Z,1022.5
2017-12-22T03:47:38.852Z,1022.5
2017-12-22T03:48:19.445Z,1022.52
2017-12-22T03:48:59.938Z,1022.52
2017-12-22T03:49:41.565Z,1022.54
2017-12-22T03:50:23.321Z,1022.54
2017-12-22T03:51:05.213Z,1022.55
2017-12-22T03:51:46.683Z,1022.56
2017-12-22T03:52:28.506Z,1022.57
2017-12-22T03:53:09.716Z,1022.56
2017-12-22T03:56:17.467Z,1022.55
2017-12-22T04:01:48.295Z,1022.56
2017-12-22T04:45:02.499Z,1022.33
2017-12-22T04:45:47.767Z,1022.35
2017-12-22T04:46:28.170Z,1022.32
2017-12-22T04:47:08.606Z,1022.36
2017-12-22T04:47:48.988Z,1022.38
2017-12-22T04:48:29.387Z,1022.38
2017-12-22T04:49:09.807Z,1022.35
2017-12-22T04:49:50.181Z,1022.36
2017-12-22T04:50:30.601Z,1022.34
2017-12-22T04:51:10.974Z,1022.37
2017-12-22T04:51:51.438Z,1022.41
2017-12-22T04:52:31.841Z,1022.39
2017-12-22T04:53:12.170Z,1022.4
2017-12-22T04:53:52.555Z,1022.39
2017-12-22T04:54:33.821Z,1022.37
2017-12-22T04:55:14.754Z,1022.37
2017-12-22T04:55:55.826Z,1022.4
2017-12-22T04:56:43.020Z,1022.38
2017-12-22T04:57:23.950Z,1022.36
2017-12-22T04:58:04.905Z,1022.4
2017-12-22T04:58:46.973Z,1022.38
2017-12-22T04:59:27.112Z,1022.4
2017-12-22T05:00:09.202Z,1022.41
2017-12-22T05:00:49.841Z,1022.41
2017-12-22T05:01:32.008Z,1022.41
2017-12-22T05:02:12.992Z,1022.41
2017-12-22T05:02:53.218Z,1022.43
2017-12-22T05:03:34.695Z,1022.43
2017-12-22T05:04:15.561Z,1022.47
2017-12-22T05:04:56.186Z,1022.46
2017-12-22T05:05:37.011Z,1022.43
2017-12-22T05:06:17.638Z,1022.47
2017-12-22T05:06:58.269Z,1022.48
2017-12-22T05:07:40.166Z,1022.46
2017-12-22T05:08:20.882Z,1022.48
2017-12-22T05:09:02.394Z,1022.47
2017-12-22T05:09:43.822Z,1022.5
2017-12-22T05:10:24.167Z,1022.47
2017-12-22T05:11:04.777Z,1022.45
2017-12-22T05:11:45.881Z,1022.46
2017-12-22T05:12:26.432Z,1022.46
2017-12-22T05:13:07.146Z,1022.45
2017-12-22T05:13:48.118Z,1022.48
2017-12-22T05:14:29.098Z,1022.44
2017-12-22T05:15:09.571Z,1022.45
2017-12-22T05:15:50.868Z,1022.4
2017-12-22T05:16:32.003Z,1022.41
2017-12-22T05:17:15.478Z,1022.4
2017-12-22T05:17:56.320Z,1022.39
2017-12-22T05:18:37.669Z,1022.39
2017-12-22T05:19:19.020Z,1022.41
2017-12-22T05:20:01.421Z,1022.41
2017-12-22T05:20:43.435Z,1022.35
2017-12-22T05:21:25.176Z,1022.39
2017-12-22T05:22:05.789Z,1022.35
2017-12-22T05:22:47.181Z,1022.35
2017-12-22T05:23:27.745Z,1022.38
2017-12-22T05:24:09.746Z,1022.36
2017-12-22T05:24:51.144Z,1022.35
2017-12-22T05:25:32.665Z,1022.35
2017-12-22T05:26:13.900Z,1022.41
2017-12-22T05:26:54.148Z,1022.36
2017-12-22T05:27:35.565Z,1022.39
2017-12-22T05:28:15.487Z,1022.36
2017-12-22T05:28:56.125Z,1022.34
2017-12-22T05:29:37.630Z,1022.36
2017-12-22T05:30:17.745Z,1022.37
2017-12-22T05:30:58.234Z,1022.35
2017-12-22T05:31:38.912Z,1022.36
2017-12-22T05:32:19.792Z,1022.38
2017-12-22T05:33:00.143Z,1022.38
2017-12-22T05:33:40.427Z,1022.38
2017-12-22T05:34:21.032Z,1022.42
2017-12-22T05:35:01.395Z,1022.42
2017-12-22T05:35:41.880Z,1022.41
2017-12-22T05:36:23.320Z,1022.43
2017-12-22T05:37:04.215Z,1022.4
2017-12-22T05:37:44.472Z,1022.4
2017-12-22T05:38:25.330Z,1022.41
2017-12-22T05:39:06.290Z,1022.42
2017-12-22T05:39:47.006Z,1022.4
2017-12-22T05:40:27.645Z,1022.42
2017-12-22T05:41:08.101Z,1022.43
2017-12-22T05:41:49.235Z,1022.41
2017-12-22T05:42:29.992Z,1022.38
2017-12-22T05:43:10.196Z,1022.4
2017-12-22T05:43:50.732Z,1022.41
2017-12-22T05:44:31.679Z,1022.41
2017-12-22T05:45:12.140Z,1022.43
2017-12-22T05:45:53.062Z,1022.41
2017-12-22T05:46:37.509Z,1022.43
2017-12-22T05:47:31.573Z,1022.38
2017-12-22T05:48:19.043Z,1022.45
2017-12-22T05:48:57.801Z,1022.43
2017-12-22T05:49:39.248Z,1022.43
2017-12-22T05:50:22.666Z,1022.43
2017-12-22T05:51:06.766Z,1022.44
2017-12-22T05:51:51.159Z,1022.45
2017-12-22T05:52:35.798Z,1022.48
2017-12-22T05:53:17.210Z,1022.45
2017-12-22T05:53:58.612Z,1022.47
2017-12-22T05:54:41.953Z,1022.46
2017-12-22T05:55:22.144Z,1022.47
2017-12-22T05:56:06.527Z,1022.45
2017-12-22T05:56:45.889Z,1022.43
2017-12-22T05:57:27.538Z,1022.42
2017-12-22T05:58:13.060Z,1022.4
2017-12-22T05:58:54.680Z,1022.42
2017-12-22T05:59:35.810Z,1022.44
2017-12-22T06:00:16.289Z,1022.42
2017-12-22T06:00:56.801Z,1022.45
2017-12-22T06:01:37.279Z,1022.43
2017-12-22T06:03:59.719Z,1022.41
2017-12-22T06:04:50.717Z,1022.47
2017-12-22T06:05:43.029Z,1022.47
2017-12-22T06:11:10.974Z,1022.49
2017-12-22T06:13:39.591Z,1022.49
2017-12-22T06:14:19.924Z,1022.51
2017-12-22T06:15:00.384Z,1022.5
2017-12-22T06:15:40.818Z,1022.47
2017-12-22T06:16:21.311Z,1022.5
2017-12-22T06:17:01.899Z,1022.5
2017-12-22T06:17:43.429Z,1022.47
2017-12-22T06:18:24.616Z,1022.5
2017-12-22T06:19:05.061Z,1022.5
2017-12-22T06:19:45.886Z,1022.47
2017-12-22T06:20:28.701Z,1022.47
2017-12-22T06:22:44.391Z,1022.45
2017-12-22T06:25:40.949Z,1022.44
2017-12-22T06:26:39.089Z,1022.37
2017-12-22T06:27:45.436Z,1022.42
2017-12-22T06:28:43.520Z,1022.43
2017-12-22T06:29:36.806Z,1022.42
2017-12-22T06:30:33.555Z,1022.43
2017-12-22T06:31:29.219Z,1022.4
2017-12-22T06:32:21.852Z,1022.42
2017-12-22T06:33:15.837Z,1022.38
2017-12-22T06:34:08.524Z,1022.41
2017-12-22T06:35:01.338Z,1022.35
2017-12-22T06:36:06.539Z,1022.42
2017-12-22T06:37:00.221Z,1022.36
2017-12-22T06:37:55.757Z,1022.34
2017-12-22T06:38:50.964Z,1022.37
2017-12-22T06:39:47.800Z,1022.36
2017-12-22T06:40:40.847Z,1022.36
2017-12-22T06:42:49.168Z,1022.39
2017-12-22T06:43:42.459Z,1022.41
2017-12-22T06:44:40.812Z,1022.4
2017-12-22T06:45:48.313Z,1022.4
2017-12-22T06:48:02.116Z,1022.44
2017-12-22T06:49:53.255Z,1022.43
2017-12-22T06:50:33.778Z,1022.45
2017-12-22T06:51:14.227Z,1022.48
2017-12-22T06:53:57.461Z,1022.54
2017-12-22T06:54:52.008Z,1022.54
2017-12-22T06:55:47.846Z,1022.55
2017-12-22T06:56:43.262Z,1022.57
2017-12-22T06:57:37.705Z,1022.53
2017-12-22T06:58:34.795Z,1022.55
2017-12-22T06:59:28.490Z,1022.54
2017-12-22T07:00:22.006Z,1022.54
2017-12-22T07:01:14.974Z,1022.57
2017-12-22T07:02:09.774Z,1022.56
2017-12-22T07:03:05.293Z,1022.57
2017-12-22T07:03:59.229Z,1022.57
2017-12-22T07:05:00.729Z,1022.57
2017-12-22T07:05:55.057Z,1022.58
2017-12-22T07:06:49.284Z,1022.57
2017-12-22T07:07:46.760Z,1022.63
2017-12-22T07:08:43.004Z,1022.62
2017-12-22T07:09:42.304Z,1022.58
2017-12-22T07:10:41.693Z,1022.61
2017-12-22T07:11:44.181Z,1022.59
2017-12-22T07:12:43.736Z,1022.61
2017-12-22T07:13:41.944Z,1022.66
2017-12-22T07:14:38.424Z,1022.57
2017-12-22T07:15:39.040Z,1022.58
2017-12-22T07:16:35.159Z,1022.61
2017-12-22T07:17:36.860Z,1022.6
2017-12-22T07:18:37.448Z,1022.59
2017-12-22T07:19:41.822Z,1022.58
2017-12-22T07:20:49.481Z,1022.6
2017-12-22T07:21:50.821Z,1022.6
2017-12-22T07:22:46.565Z,1022.55
2017-12-22T07:25:02.421Z,1022.61
2017-12-22T07:25:59.051Z,1022.65
2017-12-22T07:27:00.901Z,1022.6
2017-12-22T07:27:56.169Z,1022.61
2017-12-22T07:28:52.244Z,1022.58
2017-12-22T07:29:51.709Z,1022.63
2017-12-22T07:30:47.699Z,1022.64
2017-12-22T07:31:49.063Z,1022.66
2017-12-22T07:32:50.926Z,1022.67
2017-12-22T07:33:57.011Z,1022.67
2017-12-22T07:36:26.602Z,1022.74
2017-12-22T07:37:23.561Z,1022.72
2017-12-22T07:38:15.365Z,1022.74
2017-12-22T07:39:13.017Z,1022.74
2017-12-22T07:40:07.381Z,1022.74
2017-12-22T07:42:09.069Z,1022.73
2017-12-22T07:43:15.058Z,1022.82
2017-12-22T07:44:44.680Z,1022.83
2017-12-22T07:45:46.803Z,1022.79
2017-12-22T07:46:53.696Z,1022.85
2017-12-22T07:47:50.106Z,1022.86
2017-12-22T07:48:57.224Z,1022.87
2017-12-22T07:49:53.218Z,1022.88
2017-12-22T07:50:50.566Z,1022.89
2017-12-22T07:51:49.185Z,1022.91
2017-12-22T07:52:44.469Z,1022.95
2017-12-22T07:55:16.628Z,1022.99
2017-12-22T07:56:13.846Z,1022.98
2017-12-22T07:57:10.136Z,1022.98
2017-12-22T07:59:38.187Z,1023.02
2017-12-22T08:00:38.092Z,1023
2017-12-22T08:01:39.951Z,1023.05
2017-12-22T08:03:01.121Z,1023.07
2017-12-22T08:04:01.420Z,1023.07
2017-12-22T08:04:59.288Z,1023.1
2017-12-22T08:06:00.158Z,1023.12
2017-12-22T08:07:17.565Z,1023.06
2017-12-22T08:08:26.435Z,1023.09
2017-12-22T08:09:39.520Z,1023.11
2017-12-22T08:10:34.802Z,1023.08
2017-12-22T08:11:34.939Z,1023.15
2017-12-22T08:12:33.682Z,1023.12
2017-12-22T08:15:01.095Z,1023.14
2017-12-22T08:15:46.129Z,1023.14
2017-12-22T08:17:02.521Z,1023.16
2017-12-22T08:20:27.292Z,1023.18
2017-12-22T08:21:26.494Z,1023.17
2017-12-22T08:22:22.098Z,1023.19
2017-12-22T08:23:17.763Z,1023.19
2017-12-22T08:24:12.630Z,1023.21
2017-12-22T08:25:06.722Z,1023.17
2017-12-22T08:26:06.451Z,1023.16
2017-12-22T08:27:03.004Z,1023.18
2017-12-22T08:28:01.090Z,1023.19
2017-12-22T08:28:57.702Z,1023.13
2017-12-22T08:29:54.015Z,1023.16
2017-12-22T08:32:08.046Z,1023.17
2017-12-22T08:33:03.244Z,1023.14
2017-12-22T08:34:01.084Z,1023.11
2017-12-22T08:36:06.531Z,1023.09
2017-12-22T08:37:01.988Z,1023.1
2017-12-22T08:37:55.285Z,1023.14
2017-12-22T08:38:52.953Z,1023.14
2017-12-22T08:39:46.303Z,1023.16
2017-12-22T08:40:42.990Z,1023.2
2017-12-22T08:41:39.297Z,1023.24
2017-12-22T08:42:32.679Z,1023.28
2017-12-22T08:43:27.027Z,1023.27
2017-12-22T08:44:24.552Z,1023.23
2017-12-22T08:45:24.170Z,1023.28
2017-12-22T08:46:26.084Z,1023.24
2017-12-22T08:47:23.830Z,1023.23
2017-12-22T08:48:18.125Z,1023.26
2017-12-22T08:49:14.264Z,1023.26
2017-12-22T08:50:11.395Z,1023.27
2017-12-22T08:51:04.617Z,1023.24
2017-12-22T08:52:04.865Z,1023.25
2017-12-22T08:52:59.546Z,1023.27
2017-12-22T08:53:59.366Z,1023.32
2017-12-22T08:54:51.637Z,1023.3
2017-12-22T08:55:50.727Z,1023.32
2017-12-22T08:56:47.912Z,1023.31
2017-12-22T08:57:45.577Z,1023.28
2017-12-22T08:58:38.923Z,1023.29
2017-12-22T08:59:33.021Z,1023.29
2017-12-22T09:00:26.884Z,1023.3
2017-12-22T09:01:22.616Z,1023.35
2017-12-22T09:02:22.375Z,1023.36
2017-12-22T09:03:15.410Z,1023.37
2017-12-22T09:04:20.700Z,1023.41
2017-12-22T09:05:18.634Z,1023.45
2017-12-22T09:06:17.642Z,1023.43
2017-12-22T09:07:47.551Z,1023.24
2017-12-22T09:08:58.622Z,1023.47
2017-12-22T09:12:57.971Z,1023.58
2017-12-22T09:14:36.002Z,1023.55
2017-12-22T09:15:34.246Z,1023.54
2017-12-22T09:16:33.131Z,1023.59
2017-12-22T09:19:32.220Z,1023.63
2017-12-22T09:20:31.121Z,1023.58
2017-12-22T09:21:31.907Z,1023.69
2017-12-22T09:22:49.107Z,1023.67
2017-12-22T09:23:45.810Z,1023.67
2017-12-22T09:24:44.547Z,1023.69
2017-12-22T09:25:59.826Z,1023.69
2017-12-22T09:27:11.226Z,1023.64
2017-12-22T09:28:16.897Z,1023.73
2017-12-22T09:29:15.290Z,1023.71
2017-12-22T09:30:14.539Z,1023.73
2017-12-22T09:31:17.136Z,1023.77
2017-12-22T09:32:13.961Z,1023.78
2017-12-22T09:33:13.974Z,1023.82
2017-12-22T09:34:10.311Z,1023.78
2017-12-22T09:35:09.875Z,1023.81
2017-12-22T09:36:22.273Z,1023.82
2017-12-22T09:40:07.424Z,1023.83
2017-12-22T09:40:54.312Z,1023.82
2017-12-22T09:48:41.875Z,1023.77
2017-12-22T09:49:39.416Z,1023.75
2017-12-22T09:50:38.330Z,1023.78
2017-12-22T09:51:38.230Z,1023.76
2017-12-22T09:52:34.948Z,1023.8
2017-12-22T09:53:33.092Z,1023.77
2017-12-22T09:54:30.166Z,1023.78
2017-12-22T09:55:28.792Z,1023.81
2017-12-22T09:56:27.874Z,1023.81
2017-12-22T09:57:21.799Z,1023.82
2017-12-22T09:58:05.037Z,1023.82
2017-12-22T10:00:39.550Z,1023.85
2017-12-22T10:01:38.447Z,1023.85
2017-12-22T10:02:36.588Z,1023.83
2017-12-22T10:03:38.358Z,1023.83
2017-12-22T10:41:56.136Z,1023.9
2017-12-22T10:46:12.845Z,1023.89
2017-12-22T10:52:10.401Z,1023.86
2017-12-22T10:59:33.826Z,1023.88
2017-12-22T11:04:17.875Z,1023.9
2017-12-22T11:05:14.010Z,1023.85
2017-12-22T11:06:13.904Z,1023.91
2017-12-22T11:07:16.095Z,1023.83
2017-12-22T11:08:19.561Z,1023.87
2017-12-22T11:12:59.330Z,1023.97
2017-12-22T11:16:25.050Z,1023.97
2017-12-22T11:21:05.501Z,1024.05
2017-12-22T11:22:04.362Z,1024
2017-12-22T11:23:01.497Z,1024.05
2017-12-22T11:23:57.039Z,1024.01
2017-12-22T11:24:55.559Z,1024.08
2017-12-22T11:25:52.513Z,1024.05
2017-12-22T11:26:52.042Z,1024.01
2017-12-22T11:27:53.768Z,1024.06
2017-12-22T11:28:53.982Z,1024.07
2017-12-22T11:30:01.995Z,1024.07
2017-12-22T11:35:55.262Z,1024.08
2017-12-22T11:36:54.756Z,1024.08
2017-12-22T11:37:57.864Z,1024.04
2017-12-22T11:39:07.234Z,1024.04
2017-12-22T11:40:09.198Z,1024.04
2017-12-22T11:41:16.199Z,1023.99
2017-12-22T11:42:16.836Z,1024.01
2017-12-22T11:43:15.654Z,1023.97
2017-12-22T11:44:21.790Z,1023.91
2017-12-22T11:45:26.103Z,1023.91
2017-12-22T11:46:29.388Z,1023.92
2017-12-22T11:47:28.247Z,1023.95
2017-12-22T11:48:31.809Z,1023.91
2017-12-22T11:49:33.618Z,1023.95
2017-12-22T11:50:41.109Z,1023.9
2017-12-22T11:51:44.017Z,1023.95
2017-12-22T11:53:07.423Z,1023.9
2017-12-22T11:54:07.014Z,1023.94
2017-12-22T11:56:00.484Z,1023.88
2017-12-22T11:56:59.752Z,1023.93
2017-12-22T11:58:02.251Z,1023.91
2017-12-22T11:59:02.206Z,1023.86
2017-12-22T12:00:04.295Z,1023.85
2017-12-22T12:01:03.277Z,1023.9
2017-12-22T12:02:02.298Z,1023.87
2017-12-22T12:03:03.787Z,1023.84
2017-12-22T12:04:04.998Z,1023.83
2017-12-22T12:05:00.976Z,1023.83
2017-12-22T12:06:00.475Z,1023.8
2017-12-22T12:07:00.958Z,1023.79
2017-12-22T12:07:59.490Z,1023.78
2017-12-22T12:08:59.303Z,1023.78
2017-12-22T12:09:57.750Z,1023.73
2017-12-22T12:10:57.117Z,1023.82
2017-12-22T12:11:56.128Z,1023.77
2017-12-22T12:12:55.823Z,1023.79
2017-12-22T12:13:54.857Z,1023.8
2017-12-22T12:14:53.943Z,1023.81
2017-12-22T12:15:50.503Z,1023.84
2017-12-22T12:16:47.603Z,1023.8
2017-12-22T12:17:43.931Z,1023.83
2017-12-22T12:18:39.197Z,1023.85
2017-12-22T12:19:37.319Z,1023.81
2017-12-22T12:20:30.990Z,1023.84
2017-12-22T12:21:29.931Z,1023.84
2017-12-22T12:22:25.382Z,1023.87
2017-12-22T12:23:25.848Z,1023.81
2017-12-22T12:24:22.800Z,1023.85
2017-12-22T12:25:18.599Z,1023.88
2017-12-22T12:27:49.022Z,1023.91
2017-12-22T12:28:28.926Z,1023.92
2017-12-22T12:31:05.652Z,1023.89
2017-12-22T12:31:54.034Z,1023.92
2017-12-22T12:32:47.187Z,1023.87
2017-12-22T12:33:34.437Z,1023.85
2017-12-22T12:38:53.500Z,1023.83
2017-12-22T12:39:56.772Z,1023.81
2017-12-22T12:41:03.712Z,1023.84
2017-12-22T12:42:05.748Z,1023.83
2017-12-22T12:43:05.177Z,1023.86
2017-12-22T12:44:07.244Z,1023.86
2017-12-22T12:45:10.269Z,1023.89
2017-12-22T12:46:19.646Z,1023.89
2017-12-22T12:47:18.701Z,1023.91
2017-12-22T12:48:21.144Z,1023.92
2017-12-22T12:49:24.499Z,1023.91
2017-12-22T12:50:25.813Z,1023.91
2017-12-22T12:51:26.827Z,1023.93
2017-12-22T12:52:28.855Z,1023.94
2017-12-22T12:53:30.444Z,1023.98
2017-12-22T12:54:28.308Z,1024
2017-12-22T12:55:27.910Z,1023.99
2017-12-22T12:56:28.875Z,1024
2017-12-22T12:57:26.972Z,1024.04
2017-12-22T12:58:30.303Z,1024
2017-12-22T12:59:32.557Z,1023.97
2017-12-22T13:00:32.006Z,1024
2017-12-22T13:01:31.660Z,1023.97
2017-12-22T13:02:34.049Z,1023.98
2017-12-22T13:03:31.859Z,1023.98
2017-12-22T13:04:35.652Z,1023.96
2017-12-22T13:05:33.885Z,1023.97
2017-12-22T13:06:33.714Z,1023.97
2017-12-22T13:07:33.281Z,1023.97
2017-12-22T13:08:31.687Z,1023.97
2017-12-22T13:09:26.904Z,1023.93
2017-12-22T13:10:25.030Z,1023.9
2017-12-22T13:11:23.122Z,1023.88
2017-12-22T13:12:21.522Z,1023.95
2017-12-22T13:13:22.180Z,1023.87
2017-12-22T13:14:21.305Z,1023.9
2017-12-22T13:15:20.578Z,1023.91
2017-12-22T13:16:18.751Z,1023.92
2017-12-22T13:17:19.304Z,1023.9
2017-12-22T13:18:15.649Z,1023.91
2017-12-22T13:19:11.842Z,1023.91
2017-12-22T13:20:11.565Z,1023.94
2017-12-22T13:21:07.159Z,1023.93
2017-12-22T13:22:04.383Z,1023.94
2017-12-22T13:23:04.454Z,1023.89
2017-12-22T13:24:01.514Z,1023.91
2017-12-22T13:25:01.329Z,1023.96
2017-12-22T13:25:59.084Z,1023.95
2017-12-22T13:26:58.365Z,1023.99
2017-12-22T13:27:53.632Z,1023.98
2017-12-22T13:28:53.569Z,1024.03
2017-12-22T13:29:51.594Z,1024.07
2017-12-22T13:30:48.546Z,1024.06
2017-12-22T13:31:48.345Z,1024.05
2017-12-22T13:32:45.112Z,1024.06
2017-12-22T13:33:43.045Z,1024.08
2017-12-22T13:34:29.191Z,1024.07
2017-12-22T13:35:12.556Z,1024.14
2017-12-22T13:35:53.739Z,1024.1
2017-12-22T13:36:35.252Z,1024.06
2017-12-22T13:37:30.161Z,1024.06
2017-12-22T13:38:13.129Z,1024.06
2017-12-22T13:38:58.058Z,1024.03
2017-12-22T13:39:55.957Z,1023.99
2017-12-22T13:40:37.057Z,1023.98
2017-12-22T13:41:19.090Z,1023.98
2017-12-22T13:42:00.129Z,1024.02
2017-12-22T13:42:43.705Z,1024.04
2017-12-22T13:43:25.783Z,1024.03
2017-12-22T13:44:09.928Z,1024.04
2017-12-22T13:44:53.415Z,1024
2017-12-22T13:45:35.254Z,1024.01
2017-12-22T13:46:16.967Z,1024.03
2017-12-22T13:47:00.093Z,1024.01
2017-12-22T13:47:42.570Z,1024
2017-12-22T13:48:24.032Z,1023.99
2017-12-22T13:49:08.132Z,1023.98
2017-12-22T13:49:52.062Z,1024
2017-12-22T13:50:35.066Z,1024.03
2017-12-22T13:51:17.368Z,1023.98
2017-12-22T13:52:05.550Z,1023.99
2017-12-22T13:52:50.458Z,1024.02
2017-12-22T13:53:34.326Z,1024.02
2017-12-22T13:54:17.063Z,1023.98
2017-12-22T13:55:07.777Z,1023.97
2017-12-22T13:55:50.710Z,1024.01
2017-12-22T13:56:32.208Z,1024.05
2017-12-22T13:57:25.993Z,1024.02
2017-12-22T13:58:07.221Z,1024.04
2017-12-22T13:58:51.548Z,1024.09
2017-12-22T13:59:47.578Z,1024.05
2017-12-22T14:00:46.381Z,1024.07
2017-12-22T14:01:52.839Z,1024.12
2017-12-22T14:02:43.162Z,1024.06
2017-12-22T14:03:35.213Z,1024.09
2017-12-22T14:04:19.087Z,1024.07
2017-12-22T14:05:00.486Z,1024.06
2017-12-22T14:05:41.157Z,1024.09
2017-12-22T14:06:22.237Z,1024.09
2017-12-22T14:07:02.899Z,1024.11
2017-12-22T14:07:50.065Z,1024.09
2017-12-22T14:08:45.563Z,1024.05
2017-12-22T14:09:26.297Z,1024.12
2017-12-22T14:10:07.172Z,1024.09
2017-12-22T14:10:55.338Z,1024.1
2017-12-22T14:11:41.769Z,1024.11
2017-12-22T14:12:22.576Z,1024.1
2017-12-22T14:13:03.569Z,1024.12
2017-12-22T14:13:47.926Z,1024.07
2017-12-22T14:14:32.571Z,1024.07
2017-12-22T14:15:20.111Z,1024.08
2017-12-22T14:16:11.258Z,1024.15
2017-12-22T14:16:59.952Z,1024.11
2017-12-22T14:17:41.659Z,1024.16
2017-12-22T14:18:28.317Z,1024.09
2017-12-22T14:19:10.069Z,1024.18
2017-12-22T14:19:51.163Z,1024.19
2017-12-22T14:20:33.876Z,1024.19
2017-12-22T14:21:23.778Z,1024.19
2017-12-22T14:22:06.556Z,1024.18
2017-12-22T14:22:47.961Z,1024.21
2017-12-22T14:23:29.199Z,1024.19
2017-12-22T14:24:26.663Z,1024.18
2017-12-22T14:25:08.804Z,1024.18
2017-12-22T14:25:51.359Z,1024.21
2017-12-22T14:26:33.937Z,1024.24
2017-12-22T14:27:18.508Z,1024.19
2017-12-22T14:28:02.182Z,1024.21
2017-12-22T14:28:46.650Z,1024.23
2017-12-22T14:29:30.003Z,1024.22
2017-12-22T14:30:18.344Z,1024.16
2017-12-22T14:31:14.331Z,1024.21
2017-12-22T14:31:55.136Z,1024.24
2017-12-22T14:32:38.474Z,1024.21
2017-12-22T14:33:19.649Z,1024.24
2017-12-22T14:34:01.629Z,1024.3
2017-12-22T14:34:44.390Z,1024.27
2017-12-22T14:35:26.001Z,1024.3
2017-12-22T14:36:07.336Z,1024.28
2017-12-22T14:36:49.601Z,1024.33
2017-12-22T14:37:31.064Z,1024.24
2017-12-22T14:38:13.570Z,1024.29
2017-12-22T14:38:57.076Z,1024.29
2017-12-22T14:39:37.221Z,1024.27
2017-12-22T14:40:19.205Z,1024.32
2017-12-22T14:41:01.577Z,1024.31
2017-12-22T14:41:44.885Z,1024.28
2017-12-22T14:42:29.576Z,1024.28
2017-12-22T14:43:10.210Z,1024.34
2017-12-22T14:43:54.581Z,1024.29
2017-12-22T14:44:35.934Z,1024.32
2017-12-22T14:45:19.576Z,1024.32
2017-12-22T14:46:01.077Z,1024.3
2017-12-22T14:46:44.706Z,1024.34
2017-12-22T14:47:27.132Z,1024.28
2017-12-22T14:48:09.430Z,1024.26
2017-12-22T14:48:52.291Z,1024.29
2017-12-22T14:49:36.578Z,1024.21
2017-12-22T14:50:16.333Z,1024.22
2017-12-22T14:50:57.520Z,1024.25
2017-12-22T14:51:43.420Z,1024.25
2017-12-22T14:52:28.919Z,1024.24
2017-12-22T14:53:12.079Z,1024.25
2017-12-22T14:53:52.612Z,1024.24
2017-12-22T14:54:36.712Z,1024.24
2017-12-22T14:55:22.596Z,1024.24
2017-12-22T14:56:07.461Z,1024.24
2017-12-22T14:56:48.075Z,1024.23